Time;durP1;ratioP1;P1;durP2;ratioP2;P2;SDS_P1;SDS_P2;PMS_P1;PMS_P2;Temp;Humidity;BMP_temperature;BMP_pressure;BME280_temperature;BME280_humidity;BME280_pressure;Samples;Min_cycle;Max_cycle;Signal;HPM_P1;HPM_P2
2022/06/16 00:01:45;;;;;;;0.10;0.10;;;;;;;22.47;45.50;101381.34;5131870;28;20142;-29
2022/06/16 00:04:11;;;;;;;0.10;0.10;;;;;;;22.47;45.54;101376.59;5113625;28;20150;-29
2022/06/16 00:06:37;;;;;;;0.10;0.10;;;;;;;22.46;45.44;101374.97;5132705;28;20058;-29
2022/06/16 00:09:03;;;;;;;0.10;0.10;;;;;;;22.47;45.47;101384.94;5132042;28;20055;-29
2022/06/16 00:11:29;;;;;;;0.10;0.10;;;;;;;22.48;45.42;101388.53;5131572;28;20412;-29
2022/06/16 00:13:54;;;;;;;0.10;0.10;;;;;;;22.47;45.53;101384.94;5130811;28;20036;-29
2022/06/16 00:16:21;;;;;;;0.10;0.10;;;;;;;22.46;45.57;101383.28;5130496;27;20046;-29
2022/06/16 00:18:48;;;;;;;0.10;0.10;;;;;;;22.47;45.46;101386.88;5131813;28;20120;-29
2022/06/16 00:21:14;;;;;;;0.10;0.10;;;;;;;22.46;45.47;101388.00;5113643;28;20573;-29
2022/06/16 00:23:39;;;;;;;0.10;0.10;;;;;;;22.46;45.54;101383.28;5131772;28;20047;-29
2022/06/16 00:26:15;;;;;;;0.10;0.10;;;;;;;22.46;45.46;101369.41;5133158;28;20259;-29
2022/06/16 00:28:41;;;;;;;0.10;0.10;;;;;;;22.45;45.55;101367.75;5113001;28;20458;-29
2022/06/16 00:31:08;;;;;;;0.10;0.10;;;;;;;22.45;45.53;101372.44;5132609;28;20362;-30
2022/06/16 00:33:34;;;;;;;0.10;0.10;;;;;;;22.44;45.62;101371.63;5131986;28;20043;-30
2022/06/16 00:36:00;;;;;;;0.10;0.10;;;;;;;22.46;45.57;101379.69;5113336;28;20409;-30
2022/06/16 00:38:25;;;;;;;0.10;0.10;;;;;;;22.45;45.55;101383.56;5112388;28;20043;-30
2022/06/16 00:40:52;;;;;;;0.10;0.10;;;;;;;22.45;45.49;101378.00;5130682;28;20054;-30
2022/06/16 00:43:17;;;;;;;0.10;0.10;;;;;;;22.45;45.79;101386.31;5113221;28;20131;-29
2022/06/16 00:45:47;;;;;;;0.10;0.10;;;;;;;22.46;45.70;101390.78;5131293;28;20043;-29
2022/06/16 00:48:18;;;;;;;0.10;0.10;;;;;;;22.44;45.52;101388.28;5127274;28;20047;-29
2022/06/16 00:50:49;;;;;;;0.10;0.10;;;;;;;22.45;45.43;101384.41;5110944;28;20558;-29
2022/06/16 00:53:15;;;;;;;0.10;0.10;;;;;;;22.44;45.51;101379.97;5112751;28;20126;-29
2022/06/16 00:55:40;;;;;;;0.10;0.10;;;;;;;22.45;45.46;101387.19;5129330;27;20096;-29
2022/06/16 00:58:07;;;;;;;0.10;0.10;;;;;;;22.44;45.50;101379.97;5132058;28;20394;-29
2022/06/16 01:00:36;;;;;;;0.10;0.10;;;;;;;22.44;45.58;101387.47;5132071;28;20082;-29
2022/06/16 01:03:02;;;;;;;0.10;0.10;;;;;;;22.44;45.58;101393.00;5131656;28;20087;-29
2022/06/16 01:05:27;;;;;;;0.10;0.10;;;;;;;22.45;45.67;101394.66;5113083;28;20039;-29
2022/06/16 01:07:54;;;;;;;0.10;0.10;;;;;;;22.44;45.58;101391.06;5131456;27;20043;-29
2022/06/16 01:10:20;;;;;;;0.10;0.10;;;;;;;22.44;45.64;101388.28;5131425;28;20066;-29
2022/06/16 01:13:47;;;;;;;0.10;0.10;;;;;;;22.44;45.60;101393.00;5130393;28;20478;-29
2022/06/16 01:16:14;;;;;;;0.10;0.10;;;;;;;22.43;45.55;101394.97;5106938;28;20085;-29
2022/06/16 01:19:06;;;;;;;0.10;0.10;;;;;;;22.43;45.58;101391.34;5130633;28;20117;-29
2022/06/16 01:21:46;;;;;;;0.10;0.10;;;;;;;22.43;45.53;101386.63;5114895;28;20118;-30
2022/06/16 01:24:51;;;;;;;0.10;0.10;;;;;;;22.43;45.57;101391.34;5130647;28;20094;-30
2022/06/16 01:27:57;;;;;;;0.10;0.10;;;;;;;22.43;45.46;101396.91;5102923;28;20731;-30
2022/06/16 01:30:32;;;;;;;0.10;0.10;;;;;;;22.43;45.63;101408.00;5103476;28;20122;-30
2022/06/16 01:33:05;;;;;;;0.10;0.10;;;;;;;22.43;45.60;101397.72;5130987;28;20525;-30
2022/06/16 01:35:51;;;;;;;0.10;0.10;;;;;;;22.43;45.59;101403.28;5113588;28;20098;-30
2022/06/16 01:38:53;;;;;;;0.10;0.10;;;;;;;22.42;45.60;101404.41;5112377;28;20078;-30
2022/06/16 01:41:23;;;;;;;0.10;0.10;;;;;;;22.42;45.73;101409.13;5118731;27;20082;-30
2022/06/16 01:44:08;;;;;;;0.10;0.10;;;;;;;22.43;45.52;101413.56;5129368;28;20078;-30
2022/06/16 01:46:36;;;;;;;0.10;0.10;;;;;;;22.43;45.60;101413.56;5130359;28;20054;-30
2022/06/16 01:49:05;;;;;;;0.10;0.10;;;;;;;22.43;45.65;101419.09;5111517;28;20051;-29
2022/06/16 01:54:38;;;;;;;0.10;0.10;;;;;;;22.47;45.45;101420.19;5175784;27;20455;-34
2022/06/16 01:57:08;;;;;;;0.10;0.10;;;;;;;22.46;45.54;101426.88;5132449;27;20508;-34
2022/06/16 01:59:40;;;;;;;0.10;0.10;;;;;;;22.45;45.49;101430.72;5148187;27;20081;-35
2022/06/16 02:02:09;;;;;;;0.10;0.10;;;;;;;22.43;45.57;101425.47;5165826;27;20334;-34
2022/06/16 02:04:41;;;;;;;0.10;0.10;;;;;;;22.42;45.64;101421.06;5167775;27;20058;-33
2022/06/16 02:07:11;;;;;;;0.10;0.10;;;;;;;22.42;45.58;101426.63;5168053;27;20135;-33
2022/06/16 02:09:42;;;;;;;0.10;0.10;;;;;;;22.43;45.55;101433.81;5147851;27;20119;-33
2022/06/16 02:12:12;;;;;;;0.10;0.10;;;;;;;22.42;45.65;101437.72;5162988;27;20082;-34
2022/06/16 02:14:42;;;;;;;0.10;0.10;;;;;;;22.42;45.54;101434.13;5145368;27;20047;-33
2022/06/16 02:17:09;;;;;;;0.10;0.10;;;;;;;22.42;45.72;101434.13;5146306;27;20065;-35
2022/06/16 02:19:35;;;;;;;0.10;0.10;;;;;;;22.42;45.74;101446.03;5147034;27;20137;-33
2022/06/16 02:22:02;;;;;;;0.10;0.10;;;;;;;22.42;45.60;101450.75;5168783;27;20074;-35
2022/06/16 02:24:28;;;;;;;0.10;0.10;;;;;;;22.42;45.65;101450.75;5165558;27;20441;-36
2022/06/16 02:26:56;;;;;;;0.10;0.10;;;;;;;22.42;45.58;101448.00;5148624;27;20125;-35
2022/06/16 02:29:29;;;;;;;0.10;0.10;;;;;;;22.40;45.80;101442.72;5138060;27;20469;-33
2022/06/16 02:32:19;;;;;;;0.10;0.10;;;;;;;22.42;45.74;101450.75;5149956;27;20085;-33
2022/06/16 02:34:56;;;;;;;0.10;0.10;;;;;;;22.41;45.69;101443.53;5147133;27;20496;-36
2022/06/16 02:37:45;;;;;;;0.10;0.10;;;;;;;22.40;45.75;101439.94;5149431;27;20070;-35
2022/06/16 02:40:33;;;;;;;0.10;0.10;;;;;;;22.40;45.82;101442.72;5150595;27;20126;-32
2022/06/16 02:43:09;;;;;;;0.10;0.10;;;;;;;22.40;45.65;101447.44;5147872;27;20073;-35
2022/06/16 02:46:01;;;;;;;0.10;0.10;;;;;;;22.40;45.77;101441.88;5146983;27;20071;-36
2022/06/16 02:48:48;;;;;;;0.10;0.10;;;;;;;22.39;45.78;101443.84;5145539;27;20454;-38
2022/06/16 02:51:20;;;;;;;0.10;0.10;;;;;;;22.39;45.74;101446.59;5150357;27;20077;-38
2022/06/16 02:54:22;;;;;;;0.10;0.10;;;;;;;22.39;45.58;101446.59;5167446;27;20129;-36
2022/06/16 02:56:58;;;;;;;0.10;0.10;;;;;;;22.40;45.71;101448.25;5137980;27;20076;-33
2022/06/16 02:59:28;;;;;;;0.10;0.10;;;;;;;22.39;45.78;101446.59;5151052;27;20077;-38
2022/06/16 03:02:01;;;;;;;0.10;0.10;;;;;;;22.39;45.77;101445.78;5167382;27;20450;-34
2022/06/16 03:04:44;;;;;;;0.10;0.10;;;;;;;22.40;45.76;101447.44;5158695;27;20070;-35
2022/06/16 03:07:11;;;;;;;0.10;0.10;;;;;;;22.39;45.78;101443.84;5132934;27;20121;-36
2022/06/16 03:09:37;;;;;;;0.10;0.10;;;;;;;22.39;45.66;101443.84;5126229;27;20079;-34
2022/06/16 03:12:04;;;;;;;0.10;0.10;;;;;;;22.39;45.75;101446.59;5152137;27;20039;-37
2022/06/16 03:14:30;;;;;;;0.10;0.10;;;;;;;22.39;45.79;101448.56;5152263;27;20385;-34
2022/06/16 03:16:56;;;;;;;0.10;0.10;;;;;;;22.39;45.83;101457.72;5150455;27;20042;-36
2022/06/16 03:19:22;;;;;;;0.10;0.10;;;;;;;22.39;45.86;101445.78;5150204;27;20078;-37
2022/06/16 03:21:48;;;;;;;0.10;0.10;;;;;;;22.39;45.68;101454.94;5152611;27;20319;-36
2022/06/16 03:24:14;;;;;;;0.10;0.10;;;;;;;22.39;45.71;101462.44;5152126;27;20049;-38
2022/06/16 03:26:39;;;;;;;0.10;0.10;;;;;;;22.40;45.74;101464.09;5134692;27;20047;-34
2022/06/16 03:29:05;;;;;;;0.10;0.10;;;;;;;22.39;45.77;101465.22;5152790;27;20042;-35
2022/06/16 03:31:31;;;;;;;0.10;0.10;;;;;;;22.38;45.77;101469.13;5132824;27;20043;-33
2022/06/16 03:33:57;;;;;;;0.10;0.10;;;;;;;22.38;45.71;101469.13;5150401;27;20482;-35
2022/06/16 03:36:22;;;;;;;0.10;0.10;;;;;;;22.38;45.79;101482.97;5137902;27;20129;-38
2022/06/16 03:38:48;;;;;;;0.10;0.10;;;;;;;22.38;45.83;101486.59;5134496;27;20043;-36
2022/06/16 03:41:14;;;;;;;0.10;0.10;;;;;;;22.39;45.68;101501.28;5150175;27;20490;-37
2022/06/16 03:43:40;;;;;;;0.10;0.10;;;;;;;22.38;45.83;101502.41;5129512;28;20647;-35
2022/06/16 03:46:06;;;;;;;0.10;0.10;;;;;;;22.37;45.63;101509.91;5113420;28;20104;-34
2022/06/16 03:48:39;;;;;;;0.10;0.10;;;;;;;22.37;45.84;101509.91;5110579;28;20043;-34
2022/06/16 03:51:06;;;;;;;0.10;0.10;;;;;;;22.38;45.86;101511.56;5111876;28;20468;-34
2022/06/16 03:53:32;;;;;;;0.10;0.10;;;;;;;22.38;45.80;101510.75;5112663;28;20085;-35
2022/06/16 03:55:58;;;;;;;0.10;0.10;;;;;;;22.38;45.78;101516.28;5132629;28;20083;-36
2022/06/16 03:58:24;;;;;;;0.10;0.10;;;;;;;22.38;45.84;101519.06;5131312;28;20086;-33
2022/06/16 04:00:50;;;;;;;0.10;0.10;;;;;;;22.37;45.88;101515.47;5131524;28;20051;-38
2022/06/16 04:06:02;;;;;;;0.10;0.10;;;;;;;22.37;45.87;101511.88;5115682;28;20554;-34
2022/06/16 04:08:28;;;;;;;0.10;0.10;;;;;;;22.37;45.85;101509.91;5130487;28;20043;-34
2022/06/16 04:10:54;;;;;;;0.10;0.10;;;;;;;22.36;45.77;101512.97;5130684;28;20458;-34
2022/06/16 04:13:20;;;;;;;0.10;0.10;;;;;;;22.37;45.83;101520.19;5112868;28;20035;-32
2022/06/16 04:15:50;;;;;;;0.10;0.10;;;;;;;22.36;45.89;101524.88;5127649;27;20145;-34
2022/06/16 04:18:19;;;;;;;0.10;0.10;;;;;;;22.36;45.78;101526.84;5129037;28;20054;-35
2022/06/16 04:20:46;;;;;;;0.10;0.10;;;;;;;22.37;45.75;101534.88;5111930;28;20089;-34
2022/06/16 04:23:12;;;;;;;0.10;0.10;;;;;;;22.37;45.87;101534.06;5130499;28;20050;-36
2022/06/16 04:25:37;;;;;;;0.10;0.10;;;;;;;22.37;45.82;101534.06;5131503;28;20043;-35
2022/06/16 04:28:04;;;;;;;0.10;0.10;;;;;;;22.38;45.59;101535.72;5127304;28;20051;-36
2022/06/16 04:30:31;;;;;;;0.10;0.10;;;;;;;22.36;45.87;101526.84;5128558;28;20074;-36
2022/06/16 04:32:58;;;;;;;0.10;0.10;;;;;;;22.37;45.89;101525.75;5127619;28;20113;-36
2022/06/16 04:35:26;;;;;;;0.10;0.10;;;;;;;22.37;45.74;101531.28;5131217;28;20074;-37
2022/06/16 04:37:52;;;;;;;0.10;0.10;;;;;;;22.37;45.78;101542.38;5112086;28;20075;-36
2022/06/16 04:40:17;;;;;;;0.10;0.10;;;;;;;22.35;45.88;101537.09;5109992;28;20397;-34
2022/06/16 04:42:43;;;;;;;0.10;0.10;;;;;;;22.37;45.77;101539.63;5111643;28;20043;-35
2022/06/16 04:45:10;;;;;;;0.10;0.10;;;;;;;22.36;45.93;101540.69;5130849;28;20043;-36
2022/06/16 04:47:37;;;;;;;0.10;0.10;;;;;;;22.36;45.78;101540.69;5108251;28;20126;-33
2022/06/16 04:50:05;;;;;;;0.10;0.10;;;;;;;22.35;45.82;101541.81;5131053;27;20318;-33
2022/06/16 04:52:30;;;;;;;0.10;0.10;;;;;;;22.34;45.64;101543.78;5130410;28;20103;-34
2022/06/16 04:54:56;;;;;;;0.10;0.10;;;;;;;22.35;45.94;101547.38;5129067;28;20486;-34
2022/06/16 04:57:32;;;;;;;0.10;0.10;;;;;;;22.35;45.95;101550.97;5131229;28;20051;-35
2022/06/16 04:59:58;;;;;;;0.10;0.10;;;;;;;22.35;45.90;101559.31;5130835;28;20518;-35
2022/06/16 05:02:43;;;;;;;0.10;0.10;;;;;;;22.34;45.82;101571.53;5113470;28;20054;-33
2022/06/16 05:05:09;;;;;;;0.10;0.10;;;;;;;22.35;45.84;101569.56;5131164;28;20043;-37
2022/06/16 05:07:35;;;;;;;0.10;0.10;;;;;;;22.34;45.80;101568.75;5130324;28;20122;-33
2022/06/16 05:10:01;;;;;;;0.10;0.10;;;;;;;22.35;45.95;101567.63;5128048;28;20043;-36
2022/06/16 05:12:26;;;;;;;0.10;0.10;;;;;;;22.35;45.93;101578.72;5130082;28;20051;-37
2022/06/16 05:14:52;;;;;;;0.10;0.10;;;;;;;22.35;45.90;101577.91;5111895;28;20050;-37
2022/06/16 05:17:18;;;;;;;0.10;0.10;;;;;;;22.34;45.92;101579.03;5128376;28;20500;-35
2022/06/16 05:19:43;;;;;;;0.10;0.10;;;;;;;22.34;45.86;101588.19;5111468;28;20119;-34
2022/06/16 05:22:09;;;;;;;0.20;0.20;;;;;;;22.34;45.81;101590.13;5112413;28;20047;-37
2022/06/16 05:24:35;;;;;;;0.10;0.10;;;;;;;22.34;45.80;101596.50;5128746;28;20393;-35
2022/06/16 05:27:03;;;;;;;0.10;0.10;;;;;;;22.34;45.86;101595.69;5130346;27;20047;-37
2022/06/16 05:29:30;;;;;;;0.10;0.10;;;;;;;22.34;45.88;101615.09;5129965;28;20089;-34
2022/06/16 05:31:55;;;;;;;0.10;0.10;;;;;;;22.33;45.92;101607.91;5124164;28;20093;-36
2022/06/16 05:34:25;;;;;;;0.10;0.10;;;;;;;22.33;45.93;101619.00;5129292;28;20084;-35
2022/06/16 05:36:51;;;;;;;0.10;0.10;;;;;;;22.33;46.05;101621.78;5134261;27;20051;-35
2022/06/16 05:39:17;;;;;;;0.10;0.10;;;;;;;22.33;45.87;101627.31;5108909;28;20039;-36
2022/06/16 05:41:45;;;;;;;0.10;0.10;;;;;;;22.33;45.82;101619.81;5129182;27;20484;-35
2022/06/16 05:44:10;;;;;;;0.10;0.10;;;;;;;22.33;45.97;101616.22;5109634;28;20085;-33
2022/06/16 05:46:36;;;;;;;0.10;0.10;;;;;;;22.33;45.97;101617.06;5130131;28;20043;-33
2022/06/16 05:49:03;;;;;;;0.10;0.10;;;;;;;22.33;45.96;101621.78;5093436;28;20035;-35
2022/06/16 05:51:29;;;;;;;0.10;0.10;;;;;;;22.33;46.06;101630.09;5128400;28;20084;-35
2022/06/16 05:53:54;;;;;;;0.10;0.10;;;;;;;22.33;46.00;101630.09;5110233;28;20425;-34
2022/06/16 05:56:20;;;;;;;0.10;0.10;;;;;;;22.32;45.87;101623.69;5129226;28;20039;-35
2022/06/16 05:58:46;;;;;;;0.10;0.10;;;;;;;22.31;45.81;101622.03;5129836;28;20047;-37
2022/06/16 06:01:13;;;;;;;0.10;0.10;;;;;;;22.33;46.04;101624.53;5130514;28;20179;-34
2022/06/16 06:03:41;;;;;;;0.10;0.10;;;;;;;22.32;45.92;101625.63;5110383;28;20082;-34
2022/06/16 06:06:07;;;;;;;0.10;0.10;;;;;;;22.33;45.93;101628.16;5129647;28;20341;-35
2022/06/16 06:17:00;;;;;;;;;;;;;;;22.31;45.96;101632.31;5114351;28;20129;-35
2022/06/16 06:19:26;;;;;;;0.10;0.10;;;;;;;22.31;45.73;101637.88;5124525;28;19934;-36
2022/06/16 06:21:58;;;;;;;0.10;0.10;;;;;;;22.31;46.04;101640.63;5128215;28;20077;-34
2022/06/16 06:24:25;;;;;;;0.10;0.10;;;;;;;22.32;45.92;101647.84;5109549;28;20092;-37
2022/06/16 06:26:52;;;;;;;0.10;0.10;;;;;;;22.32;46.01;101642.28;5111005;28;20082;-38
2022/06/16 06:29:17;;;;;;;0.10;0.10;;;;;;;22.31;45.90;101648.97;5128705;28;20071;-34
2022/06/16 06:31:43;;;;;;;0.10;0.10;;;;;;;22.31;45.88;101647.00;5128291;28;20099;-34
2022/06/16 06:34:09;;;;;;;0.10;0.10;;;;;;;22.32;45.98;101659.75;5128568;28;20047;-35
2022/06/16 06:36:34;;;;;;;0.10;0.10;;;;;;;22.32;45.99;101659.75;5132428;27;20444;-33
2022/06/16 06:39:00;;;;;;;0.10;0.10;;;;;;;22.31;45.90;101669.22;5128109;27;20081;-36
2022/06/16 06:41:26;;;;;;;0.10;0.10;;;;;;;22.31;46.00;101669.22;5133888;28;20047;-35
2022/06/16 06:43:51;;;;;;;0.10;0.10;;;;;;;22.32;46.04;101675.59;5129042;28;20522;-34
2022/06/16 06:46:17;;;;;;;0.10;0.10;;;;;;;22.31;45.98;101683.09;5132677;28;20055;-36
2022/06/16 06:48:44;;;;;;;0.10;0.10;;;;;;;22.32;45.91;101681.13;5126646;28;20092;-37
2022/06/16 06:51:10;;;;;;;0.10;0.10;;;;;;;22.31;46.02;101687.81;5114457;28;20073;-36
2022/06/16 06:53:35;;;;;;;0.10;0.10;;;;;;;22.31;45.97;101685.88;5130502;28;20131;-36
2022/06/16 06:56:02;;;;;;;0.10;0.10;;;;;;;22.30;45.99;101689.75;5131390;28;20035;-35
2022/06/16 06:58:31;;;;;;;0.10;0.10;;;;;;;22.29;45.97;101691.69;5132593;28;20069;-36
2022/06/16 07:01:00;;;;;;;0.10;0.10;;;;;;;22.30;46.04;101686.97;5132252;28;20131;-38
2022/06/16 07:03:25;;;;;;;0.10;0.10;;;;;;;22.29;45.82;101686.16;5129877;28;20431;-37
2022/06/16 07:05:51;;;;;;;0.10;0.10;;;;;;;22.30;45.91;101695.31;5133825;28;20051;-37
2022/06/16 07:08:17;;;;;;;0.10;0.10;;;;;;;22.30;45.94;101703.63;5131787;28;20389;-36
2022/06/16 07:10:42;;;;;;;0.10;0.10;;;;;;;22.30;46.15;101706.41;5128023;28;20043;-38
2022/06/16 07:13:12;;;;;;;0.10;0.10;;;;;;;22.28;46.12;101709.47;5132597;28;20339;-38
2022/06/16 07:15:38;;;;;;;0.10;0.10;;;;;;;22.29;45.94;101705.59;5129364;28;20095;-34
2022/06/16 07:18:05;;;;;;;0.10;0.10;;;;;;;22.29;46.02;101711.13;5110666;28;20070;-32
2022/06/16 07:20:31;;;;;;;0.10;0.10;;;;;;;22.30;46.08;101714.72;5131874;28;20082;-35
2022/06/16 07:22:57;;;;;;;0.10;0.10;;;;;;;22.29;45.92;101707.53;5131203;28;20134;-35
2022/06/16 07:25:23;;;;;;;0.10;0.10;;;;;;;22.29;46.07;101708.34;5131592;28;20043;-35
2022/06/16 07:27:48;;;;;;;0.10;0.10;;;;;;;22.29;46.09;101721.41;5129723;28;20042;-34
2022/06/16 07:30:17;;;;;;;0.10;0.10;;;;;;;22.29;45.94;101719.44;5131426;28;20043;-34
2022/06/16 07:32:45;;;;;;;0.10;0.10;;;;;;;22.29;46.11;101730.56;5096059;28;20086;-34
2022/06/16 07:35:12;;;;;;;0.10;0.10;;;;;;;22.29;46.00;101726.94;5111902;28;20073;-35
2022/06/16 07:37:38;;;;;;;0.10;0.10;;;;;;;22.29;46.01;101725.00;5113683;28;20067;-38
2022/06/16 07:40:06;;;;;;;0.10;0.10;;;;;;;22.30;45.97;101723.06;5132751;28;20039;-36
2022/06/16 07:42:33;;;;;;;0.10;0.10;;;;;;;22.28;46.03;101728.91;5131747;27;20086;-36
2022/06/16 07:44:58;;;;;;;0.10;0.10;;;;;;;22.27;46.05;101724.44;5129215;28;20063;-33
2022/06/16 07:47:24;;;;;;;0.10;0.10;;;;;;;22.28;45.95;101728.91;5128527;28;20047;-36
2022/06/16 07:49:49;;;;;;;0.10;0.10;;;;;;;22.29;45.98;101733.31;5130239;27;20039;-35
2022/06/16 07:52:16;;;;;;;0.10;0.10;;;;;;;22.29;45.93;101738.06;5131480;28;20047;-37
2022/06/16 07:54:42;;;;;;;0.10;0.10;;;;;;;22.30;45.86;101734.16;5108805;27;20036;-35
2022/06/16 07:57:19;;;;;;;0.10;0.10;;;;;;;22.29;45.95;101738.06;5130480;28;20417;-36
2022/06/16 07:59:51;;;;;;;0.10;0.10;;;;;;;22.28;45.88;101733.63;5131411;28;20039;-36
2022/06/16 08:02:17;;;;;;;0.10;0.10;;;;;;;22.29;46.12;101738.06;5130442;28;20062;-36
2022/06/16 08:04:44;;;;;;;0.10;0.10;;;;;;;22.27;46.04;101738.31;5129089;28;20066;-35
2022/06/16 08:07:10;;;;;;;0.10;0.10;;;;;;;22.28;46.00;101740.00;5131131;28;20378;-33
2022/06/16 08:09:35;;;;;;;0.10;0.10;;;;;;;22.27;46.11;101740.25;5130239;28;20050;-33
2022/06/16 08:12:07;;;;;;;0.10;0.10;;;;;;;22.28;46.04;101742.78;5132452;28;20051;-34
2022/06/16 08:14:36;;;;;;;0.10;0.10;;;;;;;22.28;46.05;101742.78;5128798;28;20095;-35
2022/06/16 08:17:04;;;;;;;0.10;0.10;;;;;;;22.28;46.12;101756.66;5113026;28;20582;-36
2022/06/16 08:19:30;;;;;;;0.10;0.10;;;;;;;22.27;45.95;101754.97;5108884;28;20054;-35
2022/06/16 08:21:55;;;;;;;0.10;0.10;;;;;;;22.28;46.01;101753.03;5111441;28;20043;-34
2022/06/16 08:24:21;;;;;;;0.10;0.10;;;;;;;22.27;45.97;101762.47;5111921;28;20043;-33
2022/06/16 08:26:47;;;;;;;0.10;0.10;;;;;;;22.28;46.02;101753.03;5130316;28;20136;-32
2022/06/16 08:29:15;;;;;;;0.10;0.10;;;;;;;22.27;46.07;101757.75;5128781;28;20158;-37
2022/06/16 08:31:41;;;;;;;0.10;0.10;;;;;;;22.28;45.95;101764.97;5125866;28;20137;-38
2022/06/16 08:34:07;;;;;;;0.10;0.10;;;;;;;22.28;45.96;101766.91;5130097;28;20133;-34
2022/06/16 08:36:33;;;;;;;0.10;0.10;;;;;;;22.28;46.00;101775.25;5132459;27;20078;-34
2022/06/16 08:38:58;;;;;;;0.10;0.10;;;;;;;22.28;45.86;101772.47;5130002;28;20036;-37
2022/06/16 08:41:35;;;;;;;0.10;0.10;;;;;;;22.28;46.09;101770.53;5128614;28;20043;-33
2022/06/16 08:44:11;;;;;;;0.10;0.10;;;;;;;22.27;46.19;101779.94;5112251;28;20065;-37
2022/06/16 08:46:44;;;;;;;0.10;0.10;;;;;;;22.27;46.04;101785.47;5094359;28;20275;-37
2022/06/16 08:49:28;;;;;;;0.10;0.10;;;;;;;22.27;46.04;101773.56;5109722;28;20054;-37
2022/06/16 08:52:07;;;;;;;0.10;0.10;;;;;;;22.28;45.99;101783.56;5109075;28;20135;-38
2022/06/16 08:54:45;;;;;;;0.10;0.10;;;;;;;22.26;46.03;101772.72;5129296;28;20442;-38
2022/06/16 08:57:17;;;;;;;0.10;0.10;;;;;;;22.27;46.03;101777.16;5110862;28;20070;-38
2022/06/16 08:59:52;;;;;;;0.10;0.10;;;;;;;22.28;46.01;101776.06;5129430;28;20074;-33
2022/06/16 09:02:28;;;;;;;0.10;0.10;;;;;;;22.27;46.00;101768.84;5093124;28;20047;-34
2022/06/16 09:05:02;;;;;;;0.10;0.10;;;;;;;22.27;45.93;101774.38;5131501;28;20487;-33
2022/06/16 09:07:55;;;;;;;0.20;0.20;;;;;;;22.28;45.92;101780.78;5130168;28;20138;-33
2022/06/16 09:10:43;;;;;;;0.10;0.10;;;;;;;22.26;46.03;101778.28;5131076;28;20070;-37
2022/06/16 09:13:19;;;;;;;0.10;0.10;;;;;;;22.27;46.08;101779.09;5097877;28;20142;-33
2022/06/16 09:15:57;;;;;;;0.17;0.17;;;;;;;22.26;46.16;101781.06;5129460;28;20091;-34
2022/06/16 09:21:38;;;;;;;0.10;0.10;;;;;;;22.27;46.11;101792.97;5160810;27;20116;-27
2022/06/16 09:24:31;;;;;;;0.10;0.10;;;;;;;22.27;46.03;101793.81;5157739;27;20465;-27
2022/06/16 09:27:02;;;;;;;0.10;0.10;;;;;;;22.28;46.13;101803.00;5148023;27;20080;-27
2022/06/16 09:29:52;;;;;;;0.10;0.10;;;;;;;22.27;46.01;101807.69;5162756;27;20039;-27
2022/06/16 09:32:27;;;;;;;0.10;0.10;;;;;;;22.26;46.02;101802.44;5140553;27;20138;-27
2022/06/16 09:35:01;;;;;;;0.10;0.10;;;;;;;22.26;46.12;101810.75;5157077;27;20038;-27
2022/06/16 09:37:35;;;;;;;0.10;0.10;;;;;;;22.27;46.13;101812.41;5141309;27;20485;-27
2022/06/16 09:40:06;;;;;;;0.10;0.10;;;;;;;22.27;45.99;101815.19;5145543;27;20114;-27
2022/06/16 09:42:42;;;;;;;0.10;0.10;;;;;;;22.26;46.09;101819.91;5149906;27;20126;-27
2022/06/16 09:45:14;;;;;;;0.10;0.10;;;;;;;22.27;46.00;101826.28;5147308;27;20493;-27
2022/06/16 09:47:51;;;;;;;0.10;0.10;;;;;;;22.26;46.04;101833.78;5108972;27;20440;-27
2022/06/16 09:53:11;;;;;;;0.10;0.10;;;;;;;22.25;46.06;101836.84;5168654;27;20132;-27
2022/06/16 09:55:40;;;;;;;0.10;0.10;;;;;;;22.26;46.14;101836.56;5131222;27;20055;-27
2022/06/16 09:58:12;;;;;;;0.10;0.10;;;;;;;22.25;46.28;101834.91;5156464;27;20263;-27
2022/06/16 10:00:38;;;;;;;0.10;0.10;;;;;;;22.26;46.13;101836.56;5135285;27;20146;-27
2022/06/16 10:03:21;;;;;;;0.10;0.10;;;;;;;22.27;46.11;101842.94;5117970;27;20354;-27
2022/06/16 10:05:58;;;;;;;0.10;0.10;;;;;;;22.26;46.13;101855.97;5146869;27;20043;-27
2022/06/16 10:08:47;;;;;;;0.10;0.10;;;;;;;22.25;46.10;101851.53;5154152;27;20070;-27
2022/06/16 10:11:48;;;;;;;0.10;0.10;;;;;;;22.26;46.11;101867.06;5152755;27;20080;-28
2022/06/16 10:14:22;;;;;;;0.10;0.10;;;;;;;22.24;46.12;101863.75;5133932;27;20182;-28
2022/06/16 10:16:53;;;;;;;0.10;0.10;;;;;;;22.26;46.09;101864.28;5149493;27;20557;-29
2022/06/16 10:19:19;;;;;;;0.10;0.10;;;;;;;22.25;46.14;101867.38;5132779;27;20047;-29
2022/06/16 10:21:46;;;;;;;0.10;0.10;;;;;;;22.26;46.19;101871.78;5148959;27;20126;-28
2022/06/16 10:24:12;;;;;;;0.10;0.10;;;;;;;22.26;46.06;101869.84;5148481;27;20066;-28
2022/06/16 10:26:38;;;;;;;0.10;0.10;;;;;;;22.25;46.09;101873.75;5154113;27;20074;-28
2022/06/16 10:29:22;;;;;;;0.10;0.10;;;;;;;22.26;46.00;101869.03;5147587;27;20416;-27
2022/06/16 10:31:48;;;;;;;0.10;0.10;;;;;;;22.26;46.14;101874.56;5127646;27;20111;-29
2022/06/16 10:34:20;;;;;;;0.10;0.10;;;;;;;22.26;46.03;101867.06;5146203;27;20133;-28
2022/06/16 10:36:51;;;;;;;0.10;0.10;;;;;;;22.25;45.94;101868.19;5133372;27;20465;-29
2022/06/16 10:39:22;;;;;;;0.10;0.10;;;;;;;22.25;46.00;101865.41;5127548;27;20545;-28
2022/06/16 10:42:00;;;;;;;0.10;0.10;;;;;;;22.26;46.08;101869.84;5147451;27;20093;-28
2022/06/16 10:44:26;;;;;;;;;;;;;;;22.26;46.17;101857.91;5128203;27;20081;-28
2022/06/16 10:46:56;;;;;;;0.10;0.10;;;;;;;22.25;46.13;101859.88;5146617;27;20270;-27
2022/06/16 10:49:26;;;;;;;0.10;0.10;;;;;;;22.26;45.96;101857.91;5147968;27;20126;-28
2022/06/16 10:51:55;;;;;;;0.10;0.10;;;;;;;22.26;46.08;101860.69;5135571;27;20074;-27
2022/06/16 10:54:28;;;;;;;0.10;0.10;;;;;;;22.26;46.10;101855.16;5127538;27;20074;-28
2022/06/16 10:57:18;;;;;;;0.10;0.10;;;;;;;22.26;46.06;101857.91;5148099;27;20085;-28
2022/06/16 10:59:49;;;;;;;0.10;0.10;;;;;;;22.25;46.12;101854.31;5131889;27;20096;-27
2022/06/16 11:02:20;;;;;;;0.10;0.10;;;;;;;22.25;46.18;101843.22;5130991;27;20098;-27
2022/06/16 11:04:51;;;;;;;0.10;0.10;;;;;;;22.26;46.09;101839.31;5114246;28;20122;-28
2022/06/16 11:07:20;;;;;;;0.10;0.10;;;;;;;22.26;46.00;101833.78;5113252;28;20081;-28
2022/06/16 11:09:46;;;;;;;0.10;0.10;;;;;;;22.26;45.94;101832.94;5117307;27;20058;-27
2022/06/16 11:12:19;;;;;;;0.10;0.10;;;;;;;22.26;46.13;101838.50;5130247;27;20144;-27
2022/06/16 11:14:52;;;;;;;0.10;0.10;;;;;;;22.26;46.04;101831.00;5114417;28;20481;-28
2022/06/16 11:17:22;;;;;;;0.10;0.10;;;;;;;22.26;46.06;101842.09;5136413;27;20043;-28
2022/06/16 11:19:51;;;;;;;0.10;0.10;;;;;;;22.26;46.08;101844.03;5131609;27;20478;-28
2022/06/16 11:22:30;;;;;;;0.10;0.10;;;;;;;22.26;46.10;101838.50;5114789;28;20086;-28
2022/06/16 11:25:06;;;;;;;0.10;0.10;;;;;;;22.25;46.09;101834.91;5132177;27;20134;-27
2022/06/16 11:27:42;;;;;;;0.10;0.10;;;;;;;22.26;46.16;101847.66;5130861;27;20662;-28
2022/06/16 11:30:31;;;;;;;0.10;0.10;;;;;;;22.26;45.97;101852.38;5130812;27;20117;-28
2022/06/16 11:32:57;;;;;;;0.10;0.10;;;;;;;22.25;46.14;101857.09;5111784;28;20043;-28
2022/06/16 11:35:43;;;;;;;0.10;0.10;;;;;;;22.25;46.06;101857.09;5132923;27;20065;-28
2022/06/16 11:38:18;;;;;;;0.10;0.10;;;;;;;22.26;46.02;101855.16;5113348;28;20125;-28
2022/06/16 11:40:50;;;;;;;0.10;0.10;;;;;;;22.25;46.06;101839.63;5131797;27;20035;-28
2022/06/16 11:43:43;;;;;;;0.10;0.10;;;;;;;22.27;46.12;101845.69;5120614;28;20066;-28
2022/06/16 11:46:36;;;;;;;0.10;0.10;;;;;;;22.25;46.08;101837.66;5097963;28;20418;-28
2022/06/16 11:49:14;;;;;;;0.10;0.10;;;;;;;22.25;45.97;101843.22;5095464;28;20039;-28
2022/06/16 11:52:08;;;;;;;0.10;0.10;;;;;;;22.25;46.02;101834.91;5112156;28;20501;-27
2022/06/16 11:54:48;;;;;;;0.10;0.10;;;;;;;22.26;46.18;101838.50;5095954;28;20071;-27
2022/06/16 11:57:34;;;;;;;0.10;0.10;;;;;;;22.27;45.96;101848.47;5115404;28;20071;-27
2022/06/16 12:00:24;;;;;;;0.10;0.10;;;;;;;22.27;46.08;101854.03;5113487;28;20075;-27
2022/06/16 12:03:21;;;;;;;0.10;0.10;;;;;;;22.26;46.09;101852.38;5070808;28;20506;-27
2022/06/16 12:06:19;;;;;;;0.10;0.10;;;;;;;22.27;46.01;101843.75;5114247;28;20135;-28